Terminal Aerodrome Forecast
Issued by NWS

Home | Current Version | Previous Version | Text Only | Print | Product List | Glossary On
Versions: 1 2 3 4 5 6 7 8 9 10 11 12 13 14 15
000
FTUS45 KREV 241700
TAFTVL
TAF
KTVL 241740Z 2418/2518 19012KT P6SM FEW050 SCT070 SCT150
     FM241900 19015G27KT P6SM SCT080 SCT150
     FM250300 19012G20KT P6SM VCSH SCT030 BKN060 WS020/25040KT
     FM250700 19012G20KT 5SM -RASN OVC015 WS020/25035KT=

USA.gov is the U.S. government's official web portal to all federal, state and local government web resources and services.